Time;durP1;ratioP1;P1;durP2;ratioP2;P2;SDS_P1;SDS_P2;PMS_P1;PMS_P2;Temp;Humidity;BMP_temperature;BMP_pressure;BME280_temperature;BME280_humidity;BME280_pressure;Samples;Min_cycle;Max_cycle;Signal;HPM_P1;HPM_P2
2021/10/19 00:01:23;;;;;;;12.50;9.95;;;10.70;66.40;;;;;;4989397;28;20466;-56
2021/10/19 00:03:48;;;;;;;15.73;10.68;;;10.70;66.40;;;;;;4984835;28;20026;-55
2021/10/19 00:06:15;;;;;;;13.43;10.60;;;10.60;66.40;;;;;;4993201;28;20469;-55
2021/10/19 00:08:40;;;;;;;17.13;11.13;;;10.60;66.50;;;;;;4993459;28;20034;-56
2021/10/19 00:11:07;;;;;;;17.60;11.25;;;10.60;66.60;;;;;;4979656;28;20050;-53
2021/10/19 00:13:32;;;;;;;13.48;10.30;;;10.50;66.70;;;;;;4973934;28;20035;-56
2021/10/19 00:15:58;;;;;;;14.88;10.95;;;10.40;66.80;;;;;;4973956;28;20030;-56
2021/10/19 00:18:24;;;;;;;15.48;10.68;;;10.40;66.90;;;;;;4975850;28;20022;-53
2021/10/19 00:20:49;;;;;;;15.80;11.85;;;10.30;67.00;;;;;;4977118;28;20467;-53
2021/10/19 00:23:15;;;;;;;14.95;11.43;;;10.30;67.80;;;;;;4977162;28;20026;-53
2021/10/19 00:25:41;;;;;;;13.05;10.35;;;10.30;67.10;;;;;;4977119;28;20027;-53
2021/10/19 00:28:07;;;;;;;15.23;11.00;;;10.30;67.50;;;;;;4986108;28;20125;-53
2021/10/19 00:30:33;;;;;;;14.85;10.63;;;10.20;67.50;;;;;;4996111;28;20045;-53
2021/10/19 00:32:59;;;;;;;14.52;11.38;;;10.20;67.50;;;;;;4996456;28;20030;-53
2021/10/19 00:35:25;;;;;;;12.38;10.07;;;10.20;67.60;;;;;;4996185;28;20093;-53
2021/10/19 00:37:51;;;;;;;13.68;10.68;;;10.20;67.60;;;;;;4996544;28;20023;-56
2021/10/19 00:40:17;;;;;;;14.68;10.93;;;10.20;67.70;;;;;;4995754;28;20100;-53
2021/10/19 00:42:42;;;;;;;14.63;10.50;;;10.20;67.80;;;;;;4988646;28;20054;-53
2021/10/19 00:45:09;;;;;;;14.20;10.07;;;10.20;67.90;;;;;;4976771;28;20026;-53
2021/10/19 00:47:35;;;;;;;15.55;11.50;;;10.20;68.00;;;;;;4976682;28;20138;-56
2021/10/19 00:50:02;;;;;;;13.10;10.32;;;10.20;68.00;;;;;;4976954;28;20162;-54
2021/10/19 00:52:28;;;;;;;14.15;10.88;;;10.30;68.20;;;;;;4976608;28;20030;-56
2021/10/19 00:54:54;;;;;;;13.85;9.98;;;10.30;68.10;;;;;;4976531;28;20019;-54
2021/10/19 00:57:20;;;;;;;13.73;10.48;;;10.30;68.20;;;;;;4976827;28;20081;-55
2021/10/19 00:59:48;;;;;;;13.43;10.68;;;10.30;68.30;;;;;;4994737;28;20022;-53
2021/10/19 01:02:15;;;;;;;13.25;9.45;;;10.30;68.20;;;;;;4995799;28;20022;-53
2021/10/19 01:04:42;;;;;;;15.90;11.45;;;10.40;68.30;;;;;;4995767;28;20117;-53
2021/10/19 01:07:09;;;;;;;11.52;9.88;;;10.40;68.30;;;;;;4995623;28;20081;-53
2021/10/19 01:09:37;;;;;;;14.52;10.13;;;10.40;68.40;;;;;;4995761;28;20045;-53
2021/10/19 01:12:08;;;;;;;14.77;10.15;;;10.50;68.50;;;;;;4996022;28;20038;-53
2021/10/19 01:14:34;;;;;;;16.40;11.45;;;10.50;68.50;;;;;;4994907;28;20114;-55
2021/10/19 01:17:00;;;;;;;13.43;11.05;;;10.40;69.10;;;;;;4994963;28;20027;-53
2021/10/19 01:19:26;;;;;;;12.73;10.65;;;10.50;68.60;;;;;;4995524;28;20033;-54
2021/10/19 01:21:57;;;;;;;12.40;10.20;;;10.50;68.60;;;;;;4995557;28;20073;-53
2021/10/19 01:24:24;;;;;;;13.50;10.20;;;10.40;68.60;;;;;;4995487;28;20066;-56
2021/10/19 01:26:49;;;;;;;14.80;11.40;;;10.50;68.60;;;;;;4995404;28;20126;-53
2021/10/19 01:29:15;;;;;;;14.68;10.65;;;10.50;68.70;;;;;;4994329;28;20023;-54
2021/10/19 01:31:49;;;;;;;16.27;11.02;;;10.50;68.70;;;;;;4994270;28;20026;-53
2021/10/19 01:34:16;;;;;;;15.82;11.20;;;10.50;68.90;;;;;;4975818;28;20058;-53
2021/10/19 01:36:42;;;;;;;15.73;12.25;;;10.50;69.00;;;;;;4976034;28;20019;-54
2021/10/19 01:39:08;;;;;;;13.23;10.88;;;10.50;69.00;;;;;;4975550;28;20074;-53
2021/10/19 01:41:34;;;;;;;16.55;11.73;;;10.50;69.00;;;;;;4975944;28;20026;-53
2021/10/19 01:44:00;;;;;;;15.30;11.40;;;10.50;69.00;;;;;;4984241;28;20121;-53
2021/10/19 01:46:25;;;;;;;13.80;10.88;;;10.50;69.10;;;;;;4994980;28;20389;-53
2021/10/19 01:48:52;;;;;;;16.80;12.05;;;10.50;69.10;;;;;;4978669;28;20499;-53
2021/10/19 01:51:30;;;;;;;14.90;11.27;;;10.50;69.20;;;;;;4975797;28;20034;-54
2021/10/19 01:53:55;;;;;;;16.73;11.82;;;10.50;69.30;;;;;;4975403;28;20030;-53
2021/10/19 01:56:21;;;;;;;14.98;11.18;;;10.50;69.40;;;;;;4975622;28;20022;-56
2021/10/19 01:58:47;;;;;;;12.80;10.77;;;10.40;69.30;;;;;;4978487;28;20066;-53
2021/10/19 02:01:13;;;;;;;14.40;10.60;;;10.40;69.30;;;;;;4994410;28;20109;-54
2021/10/19 02:03:38;;;;;;;14.27;11.35;;;10.40;69.40;;;;;;4994669;28;20022;-55
2021/10/19 02:06:06;;;;;;;14.88;10.95;;;10.40;69.60;;;;;;4985315;28;20058;-56
2021/10/19 02:08:32;;;;;;;13.88;10.82;;;10.40;69.60;;;;;;4994943;28;20023;-55
2021/10/19 02:10:59;;;;;;;15.52;11.45;;;10.40;69.70;;;;;;4994938;28;20022;-54
2021/10/19 02:13:24;;;;;;;14.15;11.13;;;10.40;69.70;;;;;;4994526;28;20077;-53
2021/10/19 02:15:50;;;;;;;14.85;10.77;;;10.30;69.60;;;;;;4994341;28;20026;-55
2021/10/19 02:18:16;;;;;;;13.95;11.30;;;10.30;69.60;;;;;;4994306;28;20106;-53
2021/10/19 02:20:41;;;;;;;12.57;9.23;;;10.40;69.70;;;;;;4987712;28;20026;-53
2021/10/19 02:23:08;;;;;;;12.57;9.75;;;10.40;69.70;;;;;;4994270;28;20034;-55
2021/10/19 02:25:34;;;;;;;14.38;9.88;;;10.30;69.70;;;;;;4994541;28;20485;-53
2021/10/19 02:28:00;;;;;;;17.63;11.45;;;10.40;69.80;;;;;;4994489;28;20101;-53
2021/10/19 02:30:26;;;;;;;17.67;12.55;;;10.30;70.30;;;;;;4994478;28;20479;-56
2021/10/19 02:32:54;;;;;;;15.30;12.02;;;10.30;69.80;;;;;;4994477;28;20161;-55
2021/10/19 02:35:20;;;;;;;16.98;11.80;;;10.30;69.70;;;;;;4993926;28;20077;-55
2021/10/19 02:37:47;;;;;;;18.08;12.45;;;10.30;69.80;;;;;;4989984;28;20174;-55
2021/10/19 02:40:16;;;;;;;14.57;11.63;;;10.30;69.70;;;;;;4974425;28;20495;-53
2021/10/19 02:42:43;;;;;;;13.77;11.07;;;10.30;69.70;;;;;;4983639;28;20031;-56
2021/10/19 02:45:10;;;;;;;16.23;12.18;;;10.30;69.70;;;;;;4993995;28;20069;-53
2021/10/19 02:47:36;;;;;;;14.68;11.80;;;10.30;69.70;;;;;;4993891;28;20097;-53
2021/10/19 02:50:02;;;;;;;16.45;12.65;;;10.30;69.70;;;;;;4993682;28;20072;-54
2021/10/19 02:52:28;;;;;;;14.70;11.57;;;10.30;69.80;;;;;;4993895;28;20164;-53
2021/10/19 02:54:53;;;;;;;17.50;12.25;;;10.30;69.80;;;;;;4990802;28;20122;-53
2021/10/19 02:57:20;;;;;;;14.80;11.63;;;10.20;69.70;;;;;;4974402;28;20054;-53
2021/10/19 02:59:46;;;;;;;12.30;9.90;;;10.10;69.70;;;;;;4974364;28;20019;-53
2021/10/19 03:02:11;;;;;;;13.82;10.48;;;10.10;69.80;;;;;;4974347;28;20023;-53
2021/10/19 03:04:37;;;;;;;13.82;10.10;;;10.00;70.00;;;;;;4992002;28;20398;-53
2021/10/19 03:07:03;;;;;;;15.25;10.13;;;10.00;69.90;;;;;;4993796;28;20541;-56
2021/10/19 03:09:29;;;;;;;14.75;11.00;;;10.00;70.10;;;;;;4993991;28;20097;-55
2021/10/19 03:11:55;;;;;;;17.17;11.52;;;10.00;70.10;;;;;;4984387;28;20038;-54
2021/10/19 03:14:20;;;;;;;14.43;10.35;;;9.90;69.90;;;;;;4974168;28;20562;-54
2021/10/19 03:16:46;;;;;;;13.65;10.02;;;9.90;70.10;;;;;;4976446;28;20367;-53
2021/10/19 03:19:12;;;;;;;13.93;10.77;;;9.80;70.50;;;;;;4993202;28;20058;-53
2021/10/19 03:21:37;;;;;;;13.13;10.60;;;9.80;70.50;;;;;;4993567;28;20023;-53
2021/10/19 03:24:04;;;;;;;14.45;10.25;;;9.80;70.60;;;;;;4993583;28;20497;-54
2021/10/19 03:26:30;;;;;;;11.98;9.98;;;9.80;70.60;;;;;;4993465;28;20034;-53
2021/10/19 03:28:56;;;;;;;17.08;11.07;;;9.70;70.70;;;;;;4974276;28;20030;-53
2021/10/19 03:31:22;;;;;;;14.93;10.70;;;9.70;70.70;;;;;;4974219;28;20042;-53
2021/10/19 03:33:47;;;;;;;13.43;10.50;;;9.70;70.80;;;;;;4974023;28;20475;-53
2021/10/19 03:36:13;;;;;;;14.45;10.35;;;9.70;70.90;;;;;;4974280;28;20105;-53
2021/10/19 03:38:39;;;;;;;14.15;10.38;;;9.70;70.90;;;;;;4974111;28;20027;-56
2021/10/19 03:41:07;;;;;;;13.88;10.50;;;9.60;71.10;;;;;;4974285;28;20463;-56
2021/10/19 03:43:33;;;;;;;13.55;10.48;;;9.60;71.10;;;;;;4973880;28;20107;-57
2021/10/19 03:45:59;;;;;;;13.40;10.60;;;9.60;71.20;;;;;;4991998;28;20030;-56
2021/10/19 03:48:25;;;;;;;12.35;9.88;;;9.60;71.30;;;;;;4993367;28;20034;-56
2021/10/19 03:50:51;;;;;;;13.77;9.93;;;9.60;71.30;;;;;;4993171;28;20477;-53
2021/10/19 03:53:16;;;;;;;13.60;10.55;;;9.50;71.30;;;;;;4995354;28;20034;-53
2021/10/19 03:55:43;;;;;;;13.88;10.52;;;9.50;71.40;;;;;;4997296;28;20359;-53
2021/10/19 03:58:10;;;;;;;13.98;10.70;;;9.40;71.40;;;;;;4971882;28;20102;-53
2021/10/19 04:00:36;;;;;;;11.93;10.20;;;9.40;71.50;;;;;;4977821;28;20533;-53
2021/10/19 04:03:02;;;;;;;16.10;11.20;;;9.40;71.60;;;;;;4982387;28;20064;-54
2021/10/19 04:05:28;;;;;;;14.25;10.30;;;9.30;71.70;;;;;;4996804;28;20026;-53
2021/10/19 04:07:53;;;;;;;13.90;10.70;;;9.30;71.60;;;;;;4996960;28;20435;-53
2021/10/19 04:10:21;;;;;;;12.73;10.07;;;9.30;71.70;;;;;;4997159;28;20023;-53
2021/10/19 04:12:47;;;;;;;12.98;10.45;;;9.30;71.90;;;;;;4996999;28;20601;-53
2021/10/19 04:15:13;;;;;;;12.07;9.65;;;9.20;71.80;;;;;;4980782;28;20117;-53
2021/10/19 04:17:38;;;;;;;15.65;10.93;;;9.20;71.90;;;;;;4977361;28;20479;-56
2021/10/19 04:20:05;;;;;;;15.82;11.20;;;9.20;72.10;;;;;;4991688;28;20023;-56
2021/10/19 04:22:31;;;;;;;14.10;10.40;;;9.10;72.00;;;;;;4996598;28;20030;-53
2021/10/19 04:24:56;;;;;;;16.35;11.07;;;9.10;72.00;;;;;;4996848;28;20037;-53
2021/10/19 04:27:23;;;;;;;15.02;11.10;;;9.10;72.10;;;;;;4996455;28;20027;-53
2021/10/19 04:29:48;;;;;;;12.35;9.77;;;9.10;72.10;;;;;;4989656;28;20039;-55
2021/10/19 04:32:14;;;;;;;12.88;9.95;;;9.10;72.20;;;;;;4977023;28;20086;-56
2021/10/19 04:34:40;;;;;;;12.70;10.23;;;9.10;72.10;;;;;;4976638;28;20133;-53
2021/10/19 04:37:05;;;;;;;12.65;9.55;;;9.10;72.20;;;;;;4976849;28;20061;-56
2021/10/19 04:39:31;;;;;;;12.55;9.27;;;9.10;72.30;;;;;;4976710;28;20050;-53
2021/10/19 04:41:57;;;;;;;12.65;9.65;;;9.10;72.50;;;;;;4976983;28;20031;-53
2021/10/19 04:44:23;;;;;;;13.20;10.38;;;9.00;72.60;;;;;;4991788;28;20026;-53
2021/10/19 04:46:50;;;;;;;12.40;10.02;;;9.00;72.60;;;;;;4988836;28;20041;-53
2021/10/19 04:49:15;;;;;;;14.32;10.55;;;9.00;72.70;;;;;;4984652;28;20034;-53
2021/10/19 04:51:41;;;;;;;12.10;9.75;;;9.00;72.80;;;;;;4992934;28;20420;-56
2021/10/19 04:54:07;;;;;;;12.90;9.68;;;8.90;73.10;;;;;;4991377;28;20027;-53
2021/10/19 04:56:33;;;;;;;12.10;9.27;;;8.90;73.20;;;;;;4971413;28;20037;-53
2021/10/19 04:58:59;;;;;;;11.75;8.77;;;8.90;73.30;;;;;;4992819;28;20026;-52
2021/10/19 05:01:25;;;;;;;10.68;8.25;;;9.00;73.60;;;;;;4990616;28;20076;-53
2021/10/19 05:03:54;;;;;;;9.25;7.82;;;9.00;73.80;;;;;;4992468;28;20029;-53
2021/10/19 05:06:20;;;;;;;9.25;7.78;;;9.00;74.10;;;;;;4994948;28;20489;-53
2021/10/19 05:08:46;;;;;;;9.90;8.18;;;9.00;74.00;;;;;;4995192;28;20034;-53
2021/10/19 05:11:12;;;;;;;11.07;9.05;;;9.00;74.00;;;;;;4993324;28;20033;-53
2021/10/19 05:13:38;;;;;;;11.38;9.05;;;9.10;74.10;;;;;;4995196;28;20026;-53
2021/10/19 05:16:04;;;;;;;12.63;9.00;;;9.10;74.00;;;;;;4983677;28;20022;-53
2021/10/19 05:18:30;;;;;;;10.60;8.55;;;9.10;74.00;;;;;;4994072;28;20038;-53
2021/10/19 05:20:56;;;;;;;12.10;9.30;;;9.20;73.90;;;;;;4993725;28;20026;-53
2021/10/19 05:23:22;;;;;;;10.38;8.60;;;9.20;73.80;;;;;;4988423;28;20022;-53
2021/10/19 05:25:47;;;;;;;12.73;8.68;;;9.20;73.90;;;;;;4994708;28;20069;-53
2021/10/19 05:28:13;;;;;;;11.95;8.30;;;9.20;73.80;;;;;;4994551;28;20037;-52
2021/10/19 05:30:39;;;;;;;10.73;8.00;;;9.20;73.80;;;;;;4992377;28;20076;-56
2021/10/19 05:33:04;;;;;;;8.32;6.97;;;9.20;73.80;;;;;;4989549;28;20089;-52
2021/10/19 05:35:31;;;;;;;10.55;8.50;;;9.20;73.90;;;;;;4989303;28;20034;-52
2021/10/19 05:37:57;;;;;;;8.80;7.28;;;9.20;74.10;;;;;;4987398;28;20072;-51
2021/10/19 05:40:24;;;;;;;9.52;7.43;;;9.20;74.20;;;;;;4984028;28;20097;-54
2021/10/19 05:42:50;;;;;;;9.82;7.50;;;9.20;74.20;;;;;;4986294;28;20402;-51
2021/10/19 05:45:17;;;;;;;9.30;7.43;;;9.20;74.40;;;;;;4981710;28;20076;-54
2021/10/19 05:47:45;;;;;;;10.63;7.40;;;9.20;74.20;;;;;;4979544;28;20037;-54
2021/10/19 05:50:13;;;;;;;9.55;7.07;;;9.20;74.20;;;;;;4984841;28;20068;-53
2021/10/19 05:52:39;;;;;;;8.95;7.25;;;9.20;74.30;;;;;;4982815;28;20445;-55
2021/10/19 05:55:07;;;;;;;12.10;7.95;;;9.20;74.30;;;;;;4983491;28;20470;-53
2021/10/19 05:57:32;;;;;;;10.18;7.60;;;9.10;74.30;;;;;;4987654;28;20100;-55
2021/10/19 05:59:58;;;;;;;12.68;9.20;;;9.10;74.40;;;;;;4984219;28;21715;-53
2021/10/19 06:02:24;;;;;;;12.68;9.10;;;9.10;74.60;;;;;;4982185;28;20473;-55
2021/10/19 06:04:49;;;;;;;13.10;9.10;;;9.10;74.70;;;;;;4980350;28;20525;-54
2021/10/19 06:07:15;;;;;;;11.10;7.85;;;9.10;74.70;;;;;;4985030;28;20034;-56
2021/10/19 06:09:41;;;;;;;10.57;7.93;;;9.20;74.80;;;;;;4980649;28;20725;-54
2021/10/19 06:12:06;;;;;;;10.50;7.82;;;9.20;74.70;;;;;;4985108;28;20407;-57
2021/10/19 06:14:32;;;;;;;10.98;7.70;;;9.20;74.80;;;;;;4978610;28;20060;-56
2021/10/19 06:16:58;;;;;;;9.13;7.03;;;9.30;74.90;;;;;;4978119;28;20367;-56
2021/10/19 06:19:23;;;;;;;10.07;7.82;;;9.30;75.00;;;;;;4972874;28;20062;-54
2021/10/19 06:21:49;;;;;;;10.32;8.10;;;9.40;75.00;;;;;;4977864;28;20030;-56
2021/10/19 06:24:17;;;;;;;10.05;7.18;;;9.40;74.80;;;;;;4969812;28;20064;-56
2021/10/19 06:26:43;;;;;;;8.68;7.20;;;9.50;74.60;;;;;;4979506;28;20769;-56
2021/10/19 06:29:11;;;;;;;8.48;6.55;;;9.50;74.50;;;;;;4977040;28;20037;-57
2021/10/19 06:31:37;;;;;;;11.00;7.38;;;9.60;74.30;;;;;;4979965;28;20097;-56
2021/10/19 06:34:04;;;;;;;9.05;7.10;;;9.70;74.20;;;;;;4976631;28;20061;-56
2021/10/19 06:36:30;;;;;;;9.45;6.68;;;9.80;74.10;;;;;;4973048;28;20034;-56
2021/10/19 06:38:56;;;;;;;10.00;7.22;;;9.80;73.90;;;;;;4978235;28;20161;-57
2021/10/19 06:41:22;;;;;;;9.02;7.13;;;9.90;73.60;;;;;;4982966;28;20026;-57
2021/10/19 06:43:48;;;;;;;9.27;6.35;;;9.90;73.50;;;;;;4977234;28;20022;-56
2021/10/19 06:46:13;;;;;;;8.82;6.28;;;9.90;73.20;;;;;;4979164;28;20086;-55
2021/10/19 06:48:39;;;;;;;8.00;6.63;;;10.00;73.00;;;;;;4981872;28;20073;-56
2021/10/19 06:51:05;;;;;;;9.70;6.60;;;10.00;72.90;;;;;;4977244;28;20077;-56
2021/10/19 06:53:32;;;;;;;8.93;6.57;;;10.00;72.90;;;;;;4978341;28;20389;-54
2021/10/19 06:55:58;;;;;;;7.97;6.30;;;10.10;72.70;;;;;;4971696;28;20038;-57
2021/10/19 06:58:25;;;;;;;9.90;7.07;;;10.10;72.50;;;;;;4971263;28;20109;-56
2021/10/19 07:00:51;;;;;;;10.02;6.97;;;10.10;72.40;;;;;;4977414;28;20077;-57
2021/10/19 07:03:17;;;;;;;7.68;6.30;;;10.10;72.50;;;;;;4973300;28;20040;-54
2021/10/19 07:05:43;;;;;;;9.07;6.53;;;10.10;72.90;;;;;;4970902;28;20898;-57
2021/10/19 07:08:09;;;;;;;7.95;6.80;;;10.20;72.20;;;;;;4973904;28;20026;-57
2021/10/19 07:10:36;;;;;;;10.35;6.63;;;10.10;72.10;;;;;;4973356;28;20053;-57
2021/10/19 07:13:03;;;;;;;9.25;6.32;;;10.20;72.10;;;;;;4970043;28;20035;-57
2021/10/19 07:15:34;;;;;;;9.20;7.40;;;10.20;72.00;;;;;;4976362;28;22798;-57
2021/10/19 07:18:01;;;;;;;9.27;7.00;;;10.20;71.90;;;;;;4975561;28;20029;-56
2021/10/19 07:20:26;;;;;;;8.10;6.25;;;10.20;71.80;;;;;;4974592;28;20043;-54
2021/10/19 07:22:55;;;;;;;9.07;6.13;;;10.20;71.70;;;;;;4978047;28;20030;-56
2021/10/19 07:25:20;;;;;;;7.45;6.00;;;10.20;71.60;;;;;;4981158;28;20727;-57
2021/10/19 07:27:46;;;;;;;8.73;6.57;;;10.20;71.60;;;;;;4980644;28;20039;-57
2021/10/19 07:30:12;;;;;;;7.50;6.00;;;10.20;71.10;;;;;;4976665;28;20050;-57
2021/10/19 07:32:38;;;;;;;7.60;6.00;;;10.30;71.10;;;;;;4978000;28;20085;-57
2021/10/19 07:35:04;;;;;;;8.23;6.15;;;10.30;71.10;;;;;;4976009;28;20023;-57
2021/10/19 07:37:37;;;;;;;8.32;6.20;;;10.30;70.90;;;;;;4978550;28;20033;-56
2021/10/19 07:40:08;;;;;;;8.02;5.82;;;10.30;70.60;;;;;;4981613;28;20164;-56
2021/10/19 07:42:34;;;;;;;6.72;5.38;;;10.30;70.40;;;;;;4977272;28;20030;-56
2021/10/19 07:45:10;;;;;;;7.60;5.72;;;10.40;70.10;;;;;;4982645;28;20034;-56
2021/10/19 07:47:43;;;;;;;8.52;5.82;;;10.40;70.20;;;;;;4980350;28;20241;-55
2021/10/19 07:50:11;;;;;;;7.78;6.10;;;10.40;70.10;;;;;;4974338;28;20126;-56
2021/10/19 07:52:37;;;;;;;7.32;5.05;;;10.40;70.10;;;;;;4975842;28;20034;-57
2021/10/19 07:55:04;;;;;;;6.88;5.00;;;10.40;70.00;;;;;;4977706;28;20026;-56
2021/10/19 07:57:30;;;;;;;6.72;5.22;;;10.50;69.60;;;;;;4981262;28;20057;-57
2021/10/19 07:59:56;;;;;;;8.43;5.28;;;10.50;69.30;;;;;;4982324;28;20486;-57
2021/10/19 08:02:21;;;;;;;8.45;5.80;;;10.50;69.00;;;;;;4980810;28;21330;-58
2021/10/19 08:04:47;;;;;;;7.15;5.78;;;10.60;68.90;;;;;;4980556;28;20033;-57
2021/10/19 08:07:13;;;;;;;8.18;5.38;;;10.50;68.40;;;;;;4972375;28;20038;-57
2021/10/19 08:09:38;;;;;;;6.95;5.47;;;10.60;68.30;;;;;;4966253;28;20058;-57
2021/10/19 08:12:04;;;;;;;6.25;5.28;;;10.60;68.20;;;;;;4970611;28;20076;-57
2021/10/19 08:14:30;;;;;;;5.88;4.85;;;10.60;68.40;;;;;;4948581;28;20039;-57
2021/10/19 08:16:56;;;;;;;6.78;4.35;;;10.70;68.20;;;;;;4970259;28;20093;-56
2021/10/19 08:19:21;;;;;;;5.75;4.82;;;10.70;67.80;;;;;;4973991;28;20092;-55
2021/10/19 08:21:47;;;;;;;6.22;4.47;;;10.70;67.30;;;;;;4977094;28;20061;-56
2021/10/19 08:24:13;;;;;;;5.45;3.60;;;10.80;66.90;;;;;;4967273;28;20040;-57
2021/10/19 08:26:39;;;;;;;6.07;4.15;;;10.80;66.10;;;;;;4975759;28;20846;-55
2021/10/19 08:29:04;;;;;;;5.75;4.10;;;10.90;65.90;;;;;;4978355;28;20073;-56
2021/10/19 08:31:31;;;;;;;5.15;3.95;;;10.90;65.50;;;;;;4971568;28;20038;-56
2021/10/19 08:33:58;;;;;;;5.63;3.58;;;10.90;64.90;;;;;;4971398;28;20038;-57
2021/10/19 08:36:24;;;;;;;4.88;3.83;;;10.90;64.80;;;;;;4974348;28;20141;-57
2021/10/19 08:38:50;;;;;;;4.57;3.50;;;10.90;64.60;;;;;;4963752;28;20108;-56
2021/10/19 08:41:17;;;;;;;4.72;3.88;;;10.90;64.50;;;;;;4968957;28;22355;-57
2021/10/19 08:43:44;;;;;;;5.00;3.60;;;11.00;64.20;;;;;;4965961;28;20498;-57
2021/10/19 08:46:12;;;;;;;5.75;3.90;;;11.00;64.00;;;;;;4966970;28;20783;-57
2021/10/19 08:48:39;;;;;;;4.50;3.33;;;11.00;63.80;;;;;;4970654;28;20486;-57
2021/10/19 08:51:09;;;;;;;4.15;3.22;;;11.00;63.40;;;;;;4967237;28;20037;-57
2021/10/19 08:53:36;;;;;;;3.50;2.85;;;11.10;63.20;;;;;;4966408;28;20100;-57
2021/10/19 08:56:03;;;;;;;4.30;3.10;;;11.10;62.70;;;;;;4976688;28;20133;-57
2021/10/19 08:58:30;;;;;;;4.68;3.45;;;11.10;62.60;;;;;;4969622;28;20034;-56
2021/10/19 09:01:10;;;;;;;3.50;2.88;;;11.10;62.30;;;;;;4965820;28;20031;-56
2021/10/19 09:03:49;;;;;;;5.13;3.38;;;11.10;61.90;;;;;;4968114;28;20030;-57
2021/10/19 09:06:15;;;;;;;4.28;3.42;;;11.10;61.80;;;;;;4972040;28;20114;-57
2021/10/19 09:08:49;;;;;;;4.07;3.00;;;11.10;62.00;;;;;;4973761;28;20464;-57
2021/10/19 09:11:15;;;;;;;3.22;2.90;;;11.10;61.50;;;;;;4952078;28;20035;-56
2021/10/19 09:14:01;;;;;;;3.35;3.03;;;11.10;61.60;;;;;;4967015;28;20037;-56
2021/10/19 09:16:45;;;;;;;2.58;2.38;;;11.20;61.40;;;;;;4968380;28;20101;-57
2021/10/19 09:19:14;;;;;;;2.58;2.38;;;11.20;60.90;;;;;;4968552;28;20072;-57
2021/10/19 09:21:55;;;;;;;2.90;2.53;;;11.20;60.90;;;;;;4965343;28;20030;-56
2021/10/19 09:24:24;;;;;;;3.13;2.42;;;11.20;60.40;;;;;;4970816;28;20153;-57
2021/10/19 09:26:50;;;;;;;2.33;2.13;;;11.30;60.10;;;;;;4968865;28;20386;-57
2021/10/19 09:29:16;;;;;;;2.25;2.05;;;11.30;60.00;;;;;;4974379;28;20040;-56
2021/10/19 09:31:41;;;;;;;2.28;2.13;;;11.30;59.70;;;;;;4973483;28;20034;-56
2021/10/19 09:34:13;;;;;;;2.90;2.20;;;11.30;60.20;;;;;;4978754;28;20070;-56
2021/10/19 09:36:40;;;;;;;3.63;2.60;;;11.30;59.30;;;;;;4976695;28;20034;-57
2021/10/19 09:39:07;;;;;;;1.85;1.75;;;11.30;59.10;;;;;;4960333;28;20046;-55
2021/10/19 09:41:44;;;;;;;2.83;2.13;;;11.40;59.00;;;;;;4969750;28;20059;-56
2021/10/19 09:44:13;;;;;;;2.88;2.28;;;11.40;58.60;;;;;;4971775;28;20076;-57
2021/10/19 09:46:41;;;;;;;2.20;2.00;;;11.40;58.30;;;;;;4970197;28;20027;-57
2021/10/19 09:49:12;;;;;;;2.50;2.30;;;11.40;58.40;;;;;;4975030;28;20954;-56
2021/10/19 09:51:38;;;;;;;4.80;2.53;;;11.40;58.60;;;;;;4970208;28;20065;-56
2021/10/19 09:54:09;;;;;;;2.75;2.20;;;11.40;58.60;;;;;;4971532;28;22824;-56
2021/10/19 09:56:40;;;;;;;3.15;2.60;;;11.40;58.50;;;;;;4970919;28;20030;-56
2021/10/19 09:59:07;;;;;;;2.88;2.28;;;11.50;58.60;;;;;;4969872;28;20039;-57
2021/10/19 10:01:36;;;;;;;3.63;2.30;;;11.40;58.10;;;;;;4973762;28;20110;-57
2021/10/19 10:04:02;;;;;;;2.30;2.10;;;11.40;57.70;;;;;;4969961;28;20586;-56
2021/10/19 10:06:31;;;;;;;2.72;2.08;;;11.50;57.60;;;;;;4972335;28;20565;-57
2021/10/19 10:08:58;;;;;;;2.60;1.95;;;11.50;57.50;;;;;;4974627;28;21257;-56
2021/10/19 10:11:24;;;;;;;2.30;2.10;;;11.50;57.50;;;;;;4974861;28;20037;-56
2021/10/19 10:13:57;;;;;;;2.67;2.08;;;11.50;57.40;;;;;;4975881;28;20030;-56
2021/10/19 10:16:23;;;;;;;2.40;2.20;;;11.50;57.10;;;;;;4969090;28;20038;-57
2021/10/19 10:18:49;;;;;;;4.43;2.15;;;11.50;57.10;;;;;;4970396;28;20053;-56
2021/10/19 10:21:16;;;;;;;2.47;2.28;;;11.50;57.10;;;;;;4975720;28;20026;-57
2021/10/19 10:23:43;;;;;;;2.47;2.28;;;11.50;57.00;;;;;;4976887;28;20853;-54
2021/10/19 10:26:20;;;;;;;2.85;2.22;;;11.50;56.80;;;;;;4975313;28;20066;-55
2021/10/19 10:28:45;;;;;;;2.33;2.05;;;11.50;56.90;;;;;;4980434;28;20034;-56
2021/10/19 10:31:19;;;;;;;2.88;2.17;;;11.60;57.10;;;;;;4980644;28;20486;-56
2021/10/19 10:33:48;;;;;;;1.98;1.70;;;11.60;57.00;;;;;;4977101;28;20121;-56
2021/10/19 10:36:15;;;;;;;3.20;2.22;;;11.60;57.00;;;;;;4977007;28;20882;-56
2021/10/19 10:38:56;;;;;;;2.63;1.90;;;11.60;56.50;;;;;;4977518;28;20030;-54
2021/10/19 10:41:22;;;;;;;2.92;1.75;;;11.60;56.20;;;;;;4970831;28;20549;-55
2021/10/19 10:44:06;;;;;;;1.80;1.70;;;11.60;56.20;;;;;;4973062;28;20037;-57
2021/10/19 10:46:32;;;;;;;2.10;1.90;;;11.70;56.20;;;;;;4976514;28;21332;-56
2021/10/19 10:48:58;;;;;;;1.75;1.65;;;11.70;56.30;;;;;;4972278;28;20038;-56
2021/10/19 10:51:33;;;;;;;1.67;1.58;;;11.70;56.20;;;;;;4968503;28;20068;-55
2021/10/19 10:53:59;;;;;;;1.75;1.60;;;11.70;55.80;;;;;;4970104;28;20045;-56
2021/10/19 10:56:26;;;;;;;1.98;1.50;;;11.70;55.70;;;;;;4970418;28;20023;-56
2021/10/19 10:58:52;;;;;;;1.75;1.65;;;11.70;55.00;;;;;;4967109;28;20113;-55
2021/10/19 11:01:20;;;;;;;1.92;1.80;;;11.70;55.00;;;;;;4970200;28;20030;-56
2021/10/19 11:04:09;;;;;;;1.70;1.60;;;11.70;54.70;;;;;;4975460;28;20031;-56
2021/10/19 11:06:37;;;;;;;2.13;1.80;;;11.70;54.10;;;;;;4971600;28;20049;-56
2021/10/19 11:09:28;;;;;;;2.10;1.70;;;11.70;54.20;;;;;;4972800;28;20398;-58
2021/10/19 11:11:58;;;;;;;2.05;1.60;;;11.70;53.80;;;;;;4975181;28;20070;-56
2021/10/19 11:14:25;;;;;;;2.25;1.70;;;11.60;53.90;;;;;;4969372;28;20038;-56
2021/10/19 11:16:56;;;;;;;1.48;1.40;;;11.60;54.00;;;;;;4972790;28;20053;-56
2021/10/19 11:19:24;;;;;;;1.63;1.48;;;11.60;54.10;;;;;;4962092;28;20030;-56
2021/10/19 11:21:58;;;;;;;1.65;1.55;;;11.70;54.40;;;;;;4975330;28;20030;-57
2021/10/19 11:24:26;;;;;;;1.65;1.55;;;11.70;54.00;;;;;;4970373;28;20737;-56
2021/10/19 11:26:53;;;;;;;1.67;1.58;;;11.60;53.90;;;;;;4972047;28;20058;-55
2021/10/19 11:29:20;;;;;;;2.88;1.98;;;11.70;54.10;;;;;;4968800;28;20049;-55
2021/10/19 11:31:46;;;;;;;2.10;1.90;;;11.70;53.80;;;;;;4969632;28;20507;-54
2021/10/19 11:34:12;;;;;;;1.80;1.70;;;11.70;53.80;;;;;;4969013;28;20041;-55
2021/10/19 11:36:38;;;;;;;1.90;1.52;;;11.70;53.90;;;;;;4965573;28;20034;-55
2021/10/19 11:39:11;;;;;;;1.60;1.50;;;11.70;54.10;;;;;;4966930;28;20414;-55
2021/10/19 11:41:39;;;;;;;2.17;1.90;;;11.70;54.10;;;;;;4969109;28;20026;-55
2021/10/19 11:44:06;;;;;;;1.67;1.58;;;11.70;53.70;;;;;;4972232;28;20393;-56
2021/10/19 11:46:35;;;;;;;2.08;1.80;;;11.80;53.90;;;;;;4972627;28;20493;-55
2021/10/19 11:49:11;;;;;;;2.00;1.90;;;11.80;53.70;;;;;;4974901;28;20018;-55
2021/10/19 11:51:37;;;;;;;1.90;1.80;;;11.80;53.70;;;;;;4970301;28;20042;-56
2021/10/19 11:54:04;;;;;;;2.40;1.77;;;11.80;53.70;;;;;;4964360;28;20043;-56
2021/10/19 11:56:31;;;;;;;1.60;1.50;;;11.80;53.30;;;;;;4965319;28;20125;-56
2021/10/19 11:59:06;;;;;;;2.85;1.42;;;11.80;52.90;;;;;;4968056;28;20105;-56
2021/10/19 12:01:39;;;;;;;1.83;1.60;;;11.80;52.50;;;;;;4972000;28;20038;-55
2021/10/19 12:04:13;;;;;;;1.85;1.70;;;11.80;52.90;;;;;;4966745;28;20146;-57
2021/10/19 12:06:46;;;;;;;1.50;1.40;;;11.80;52.10;;;;;;4966416;28;22507;-55
2021/10/19 12:09:15;;;;;;;1.55;1.45;;;11.80;52.20;;;;;;4970545;28;20030;-56
2021/10/19 12:11:47;;;;;;;2.75;1.73;;;11.80;52.10;;;;;;4967347;28;20182;-54
2021/10/19 12:14:13;;;;;;;1.60;1.30;;;11.80;51.80;;;;;;4973729;28;20364;-56
2021/10/19 12:16:39;;;;;;;1.52;1.42;;;11.80;51.60;;;;;;4972652;28;20041;-57
2021/10/19 12:19:05;;;;;;;1.98;1.70;;;11.80;51.70;;;;;;4977796;28;20471;-56
2021/10/19 12:21:32;;;;;;;2.50;1.90;;;11.80;52.40;;;;;;4975750;28;20022;-57
2021/10/19 12:24:05;;;;;;;2.20;2.00;;;11.80;52.60;;;;;;4977098;28;20039;-57
2021/10/19 12:26:31;;;;;;;1.63;1.40;;;11.80;53.40;;;;;;4971679;28;20168;-57
2021/10/19 12:29:03;;;;;;;2.05;1.80;;;11.80;52.60;;;;;;4975952;28;20113;-56
2021/10/19 12:31:30;;;;;;;1.90;1.60;;;11.80;53.00;;;;;;4969479;28;20030;-57
2021/10/19 12:34:06;;;;;;;1.85;1.70;;;11.90;53.00;;;;;;4971307;28;20029;-58
2021/10/19 12:36:36;;;;;;;1.95;1.55;;;11.90;52.50;;;;;;4971767;28;20088;-56
2021/10/19 12:39:16;;;;;;;1.60;1.50;;;11.90;52.00;;;;;;4978120;28;20169;-55
2021/10/19 12:41:43;;;;;;;1.38;1.33;;;11.80;51.70;;;;;;4971684;28;20148;-56